Decoded Metar for EGUN (MILDENHALL in ENGLAND) (IATA:MHZ) | Meteo·Mobile Aviation Weather
aviador You're here:

EGUN Decoded Metar

MILDENHALL in ENGLAND
Report Time2019-02-22 04:06:00
UTC Time2019-02-22 04:14:22
Flight Rules ifr IFR
Wind230° at 04 kt
W.Decomp.*RWY 29: 2.1 kt HW 3.4 kt LCW
W.Rank230° ranks 1
Current wind is below 230° avg. (9.5)
Visibility3200 m
Phenomena:Mist
Clouds:N/A
CeilingNone
Temp05°C (ISA -10)
Dew Point05°C (100% RH)
AAT2.4°C
QNH1032 hPa
Density Alt-1,693 ft
Elevation33 ft
Report Wrong Elevation
Raw Report
EGUN 220406Z 23004KT 3200 BR CLR 05/05 A3047 RMK AO2A VIS
3200V6000 SLPNO WND DATA ESTMD $=

Extra information for EGUN:More info

Metar Taf Metar & Taf Last 4 Metars F.Rules Stats Wind Profile Meteogram Temp Stats Airport Information Weather charts Add Link Nearby VenuesMetar ALERT Operation Metar Decoded Social comments